createdAt,value
2019-03-09T00:00:02.288Z,963.97
2019-03-09T00:01:02.262Z,963.97
2019-03-09T00:02:02.174Z,963.92
2019-03-09T00:03:02.116Z,964.00
2019-03-09T00:04:02.061Z,963.95
2019-03-09T00:05:02.051Z,963.87
2019-03-09T00:06:01.951Z,964.02
2019-03-09T00:07:01.937Z,964.03
2019-03-09T00:08:01.838Z,964.05
2019-03-09T00:09:01.780Z,964.01
2019-03-09T00:10:01.722Z,964.00
2019-03-09T00:11:01.668Z,963.99
2019-03-09T00:12:01.647Z,964.00
2019-03-09T00:13:01.563Z,963.98
2019-03-09T00:14:01.502Z,964.06
2019-03-09T00:15:01.477Z,963.93
2019-03-09T00:16:01.383Z,963.96
2019-03-09T00:17:01.366Z,963.90
2019-03-09T00:18:01.304Z,963.95
2019-03-09T00:19:01.219Z,963.88
2019-03-09T00:20:01.164Z,963.90
2019-03-09T00:21:01.105Z,963.89
2019-03-09T00:22:01.076Z,963.89
2019-03-09T00:23:01.033Z,963.86
2019-03-09T00:24:00.933Z,963.98
2019-03-09T00:25:00.878Z,963.88
2019-03-09T00:26:00.820Z,963.93
2019-03-09T00:27:00.763Z,963.98
2019-03-09T00:28:00.738Z,963.97
2019-03-09T00:29:00.651Z,963.95
2019-03-09T00:30:00.595Z,963.95
2019-03-09T00:31:00.539Z,963.96
2019-03-09T00:32:00.528Z,963.96
2019-03-09T00:33:00.425Z,963.93
2019-03-09T00:34:00.371Z,963.92
2019-03-09T00:35:00.317Z,963.97
2019-03-09T00:36:00.253Z,963.91
2019-03-09T00:37:00.240Z,964.03
2019-03-09T00:38:00.142Z,963.98
2019-03-09T00:39:00.084Z,964.01
2019-03-09T00:40:00.031Z,964.03
2019-03-09T00:40:59.975Z,964.02
2019-03-09T00:41:59.952Z,964.01
2019-03-09T00:42:59.891Z,963.97
2019-03-09T00:43:59.804Z,963.97
2019-03-09T00:44:59.748Z,963.97
2019-03-09T00:45:59.691Z,963.91
2019-03-09T00:46:59.632Z,963.92
2019-03-09T00:47:59.611Z,963.89
2019-03-09T00:48:59.522Z,963.85
2019-03-09T00:49:59.503Z,963.87
2019-03-09T00:50:59.409Z,963.84
2019-03-09T00:51:59.351Z,963.74
2019-03-09T00:52:59.295Z,963.77
2019-03-09T00:53:59.238Z,963.75
2019-03-09T00:54:59.213Z,963.76
2019-03-09T00:55:59.130Z,963.69
2019-03-09T00:56:59.101Z,963.68
2019-03-09T00:57:59.015Z,963.65
2019-03-09T00:58:58.957Z,963.64
2019-03-09T00:59:58.913Z,963.61
2019-03-09T01:00:58.843Z,963.61
2019-03-09T01:01:58.819Z,963.59
2019-03-09T01:02:58.735Z,963.61
2019-03-09T01:03:58.676Z,963.53
2019-03-09T01:04:58.619Z,963.58
2019-03-09T01:05:58.563Z,963.46
2019-03-09T01:06:58.544Z,963.50
2019-03-09T01:07:58.450Z,963.51
2019-03-09T01:08:58.396Z,963.51
2019-03-09T01:09:58.336Z,963.51
2019-03-09T01:10:58.282Z,963.39
2019-03-09T01:11:58.255Z,963.41
2019-03-09T01:12:58.168Z,963.48
2019-03-09T01:13:58.112Z,963.46
2019-03-09T01:14:58.060Z,963.44
2019-03-09T01:15:58.038Z,963.35
2019-03-09T01:16:57.941Z,963.41
2019-03-09T01:17:57.891Z,963.34
2019-03-09T01:18:57.840Z,963.36
2019-03-09T01:19:57.775Z,963.39
2019-03-09T01:20:57.753Z,963.37
2019-03-09T01:21:57.667Z,963.28
2019-03-09T01:22:57.605Z,963.32
2019-03-09T01:23:57.581Z,963.34
2019-03-09T01:24:57.491Z,963.35
2019-03-09T01:25:57.438Z,963.24
2019-03-09T01:26:57.420Z,963.20
2019-03-09T01:27:57.323Z,963.17
2019-03-09T01:28:57.266Z,963.11
2019-03-09T01:29:57.215Z,963.18
2019-03-09T01:30:57.159Z,963.17
2019-03-09T01:31:57.134Z,963.11
2019-03-09T01:32:57.081Z,963.13
2019-03-09T01:33:56.985Z,963.05
2019-03-09T01:34:56.929Z,963.04
2019-03-09T01:35:56.872Z,963.01
2019-03-09T01:36:56.814Z,963.00
2019-03-09T01:37:56.791Z,962.97
2019-03-09T01:38:56.702Z,962.96
2019-03-09T01:39:56.648Z,962.82
2019-03-09T01:40:56.616Z,962.81
2019-03-09T01:41:56.537Z,962.83
2019-03-09T01:42:56.480Z,962.81
2019-03-09T01:43:56.424Z,962.79
2019-03-09T01:44:56.397Z,962.78
2019-03-09T01:45:56.311Z,962.69
2019-03-09T01:46:56.250Z,962.69
2019-03-09T01:47:56.206Z,962.66
2019-03-09T01:48:56.177Z,962.59
2019-03-09T01:49:56.085Z,962.52
2019-03-09T01:50:56.033Z,962.53
2019-03-09T01:51:55.968Z,962.44
2019-03-09T01:52:55.914Z,962.44
2019-03-09T01:53:55.938Z,962.30
2019-03-09T01:54:55.799Z,962.34
2019-03-09T01:55:55.742Z,962.23
2019-03-09T01:56:55.729Z,962.27
2019-03-09T01:57:55.661Z,962.22
2019-03-09T01:58:55.614Z,962.28
2019-03-09T01:59:55.521Z,962.14
2019-03-09T02:00:55.463Z,962.19
2019-03-09T02:01:55.412Z,962.22
2019-03-09T02:02:55.346Z,962.23
2019-03-09T02:03:55.325Z,962.15
2019-03-09T02:04:55.265Z,962.09
2019-03-09T02:05:55.180Z,962.07
2019-03-09T02:06:55.126Z,962.01
2019-03-09T02:07:55.068Z,961.95
2019-03-09T02:08:55.010Z,961.95
2019-03-09T02:09:55.002Z,961.85
2019-03-09T02:10:54.898Z,961.87
2019-03-09T02:11:54.836Z,961.80
2019-03-09T02:12:54.780Z,961.86
2019-03-09T02:13:54.724Z,961.79
2019-03-09T02:14:54.707Z,961.77
2019-03-09T02:15:54.610Z,961.73
2019-03-09T02:16:54.553Z,961.76
2019-03-09T02:17:54.499Z,961.76
2019-03-09T02:18:54.442Z,961.81
2019-03-09T02:19:54.419Z,961.75
2019-03-09T02:20:54.362Z,961.81
2019-03-09T02:21:54.272Z,961.86
2019-03-09T02:22:54.214Z,961.81
2019-03-09T02:23:54.157Z,961.77
2019-03-09T02:24:54.101Z,961.62
2019-03-09T02:25:54.080Z,961.70
2019-03-09T02:26:53.988Z,961.65
2019-03-09T02:27:53.931Z,961.50
2019-03-09T02:28:53.873Z,961.56
2019-03-09T02:29:53.815Z,961.38
2019-03-09T02:30:53.796Z,961.37
2019-03-09T02:31:53.738Z,961.28
2019-03-09T02:32:53.647Z,961.31
2019-03-09T02:33:53.590Z,961.36
2019-03-09T02:34:53.531Z,961.38
2019-03-09T02:35:53.509Z,961.35
2019-03-09T02:36:53.455Z,961.45
2019-03-09T02:37:53.404Z,961.43
2019-03-09T02:38:53.308Z,961.50
2019-03-09T02:39:53.250Z,961.51
2019-03-09T02:40:53.199Z,961.48
2019-03-09T02:41:53.179Z,961.39
2019-03-09T02:42:53.084Z,961.47
2019-03-09T02:43:53.024Z,961.47
2019-03-09T02:44:52.974Z,961.46
2019-03-09T02:45:52.907Z,961.34
2019-03-09T02:46:52.886Z,961.38
2019-03-09T02:47:52.833Z,961.34
2019-03-09T02:48:52.739Z,961.22
2019-03-09T02:49:52.687Z,961.12
2019-03-09T02:50:52.627Z,961.17
2019-03-09T02:51:52.600Z,960.98
2019-03-09T02:52:52.512Z,961.06
2019-03-09T02:53:52.468Z,961.11
2019-03-09T02:54:52.427Z,961.02
2019-03-09T02:55:52.342Z,961.13
2019-03-09T02:56:52.322Z,961.04
2019-03-09T02:57:52.286Z,961.17
2019-03-09T02:58:52.174Z,961.13
2019-03-09T02:59:52.116Z,961.05
2019-03-09T03:00:52.062Z,960.99
2019-03-09T03:01:52.001Z,961.10
2019-03-09T03:02:51.977Z,961.09
2019-03-09T03:03:51.887Z,961.00
2019-03-09T03:04:51.861Z,960.93
2019-03-09T03:05:51.776Z,960.87
2019-03-09T03:06:51.717Z,960.86
2019-03-09T03:07:51.663Z,960.74
2019-03-09T03:08:51.604Z,960.83
2019-03-09T03:09:51.591Z,960.84
2019-03-09T03:10:51.491Z,960.86
2019-03-09T03:11:51.435Z,960.84
2019-03-09T03:12:51.378Z,960.83
2019-03-09T03:13:51.322Z,960.75
2019-03-09T03:14:51.296Z,960.91
2019-03-09T03:15:51.208Z,960.89
2019-03-09T03:16:51.228Z,960.84
2019-03-09T03:17:51.129Z,960.80
2019-03-09T03:18:51.044Z,960.71
2019-03-09T03:19:51.013Z,960.81
2019-03-09T03:20:50.932Z,960.65
2019-03-09T03:21:50.913Z,960.59
2019-03-09T03:22:50.810Z,960.53
2019-03-09T03:23:50.755Z,960.56
2019-03-09T03:24:50.701Z,960.53
2019-03-09T03:25:50.655Z,960.61
2019-03-09T03:26:50.625Z,960.56
2019-03-09T03:27:50.535Z,960.60
2019-03-09T03:28:50.474Z,960.65
2019-03-09T03:29:50.419Z,960.81
2019-03-09T03:30:50.406Z,960.59
2019-03-09T03:31:50.308Z,960.65
2019-03-09T03:32:50.276Z,960.65
2019-03-09T03:33:50.208Z,960.64
2019-03-09T03:34:50.134Z,960.76
2019-03-09T03:35:50.113Z,960.81
2019-03-09T03:36:50.021Z,960.77
2019-03-09T03:37:49.995Z,960.74
2019-03-09T03:38:49.910Z,960.69
2019-03-09T03:39:49.854Z,960.67
2019-03-09T03:40:49.831Z,960.66
2019-03-09T03:41:49.738Z,960.65
2019-03-09T03:42:49.681Z,960.66
2019-03-09T03:43:49.666Z,960.57
2019-03-09T03:44:49.568Z,960.70
2019-03-09T03:45:49.513Z,960.72
2019-03-09T03:46:49.457Z,960.59
2019-03-09T03:47:49.400Z,960.62
2019-03-09T03:48:49.387Z,960.67
2019-03-09T03:49:49.294Z,960.58
2019-03-09T03:50:49.230Z,960.56
2019-03-09T03:51:49.173Z,960.69
2019-03-09T03:52:49.117Z,960.59
2019-03-09T03:53:49.142Z,960.65
2019-03-09T03:54:49.008Z,960.59
2019-03-09T03:55:48.951Z,960.62
2019-03-09T03:56:48.931Z,960.65
2019-03-09T03:57:48.836Z,960.78
2019-03-09T03:58:48.777Z,960.65
2019-03-09T03:59:48.721Z,960.63
2019-03-09T04:00:48.699Z,960.62
2019-03-09T04:01:48.610Z,960.54
2019-03-09T04:02:48.554Z,960.53
2019-03-09T04:03:48.495Z,960.67
2019-03-09T04:04:48.473Z,960.58
2019-03-09T04:05:48.421Z,960.54
2019-03-09T04:06:48.323Z,960.62
2019-03-09T04:07:48.269Z,960.67
2019-03-09T04:08:48.217Z,960.63
2019-03-09T04:09:48.155Z,960.68
2019-03-09T04:10:48.128Z,960.58
2019-03-09T04:11:48.041Z,960.63
2019-03-09T04:12:47.989Z,960.67
2019-03-09T04:13:47.960Z,960.68
2019-03-09T04:14:47.879Z,960.66
2019-03-09T04:15:47.823Z,960.62
2019-03-09T04:16:47.792Z,960.68
2019-03-09T04:17:47.703Z,960.66
2019-03-09T04:18:47.653Z,960.72
2019-03-09T04:19:47.588Z,960.67
2019-03-09T04:20:47.542Z,960.65
2019-03-09T04:21:47.518Z,960.65
2019-03-09T04:22:47.417Z,960.71
2019-03-09T04:23:47.361Z,960.55
2019-03-09T04:24:47.304Z,960.67
2019-03-09T04:25:47.252Z,960.70
2019-03-09T04:26:47.232Z,960.70
2019-03-09T04:27:47.136Z,960.66
2019-03-09T04:28:47.083Z,960.77
2019-03-09T04:29:47.045Z,960.75
2019-03-09T04:30:46.995Z,960.73
2019-03-09T04:31:46.908Z,960.77
2019-03-09T04:32:46.882Z,960.81
2019-03-09T04:33:46.830Z,960.77
2019-03-09T04:34:46.733Z,960.67
2019-03-09T04:35:46.680Z,960.85
2019-03-09T04:36:46.623Z,960.83
2019-03-09T04:37:46.563Z,960.78
2019-03-09T04:38:46.539Z,960.74
2019-03-09T04:39:46.450Z,960.78
2019-03-09T04:40:46.412Z,960.75
2019-03-09T04:41:46.373Z,960.76
2019-03-09T04:42:46.277Z,960.74
2019-03-09T04:43:46.222Z,960.73
2019-03-09T04:44:46.213Z,960.69
2019-03-09T04:45:46.108Z,960.74
2019-03-09T04:46:46.055Z,960.86
2019-03-09T04:47:45.999Z,960.71
2019-03-09T04:48:45.950Z,960.69
2019-03-09T04:49:45.920Z,960.71
2019-03-09T04:50:45.825Z,960.74
2019-03-09T04:51:45.764Z,960.79
2019-03-09T04:52:45.710Z,960.96
2019-03-09T04:53:45.664Z,960.91
2019-03-09T04:54:45.630Z,960.72
2019-03-09T04:55:45.571Z,960.76
2019-03-09T04:56:45.483Z,960.93
2019-03-09T04:57:45.425Z,960.86
2019-03-09T04:58:45.369Z,960.88
2019-03-09T04:59:45.311Z,960.78
2019-03-09T05:00:45.284Z,960.77
2019-03-09T05:01:45.200Z,960.87
2019-03-09T05:02:45.138Z,961.01
2019-03-09T05:03:45.080Z,960.91
2019-03-09T05:04:45.061Z,960.98
2019-03-09T05:05:45.000Z,960.85
2019-03-09T05:06:44.911Z,960.87
2019-03-09T05:07:44.857Z,961.01
2019-03-09T05:08:44.798Z,960.87
2019-03-09T05:09:44.739Z,960.89
2019-03-09T05:10:44.712Z,960.83
2019-03-09T05:11:44.629Z,960.95
2019-03-09T05:12:44.603Z,960.77
2019-03-09T05:13:44.514Z,960.84
2019-03-09T05:14:44.451Z,960.97
2019-03-09T05:15:44.397Z,960.74
2019-03-09T05:16:44.366Z,960.76
2019-03-09T05:17:44.284Z,960.78
2019-03-09T05:18:44.268Z,960.80
2019-03-09T05:19:44.169Z,960.88
2019-03-09T05:20:44.112Z,960.93
2019-03-09T05:21:44.055Z,960.85
2019-03-09T05:22:43.998Z,960.92
2019-03-09T05:23:43.971Z,960.89
2019-03-09T05:24:43.883Z,960.94
2019-03-09T05:25:43.826Z,960.91
2019-03-09T05:26:45.037Z,960.91
2019-03-09T05:27:43.711Z,960.86
2019-03-09T05:28:43.655Z,960.93
2019-03-09T05:29:43.598Z,960.86
2019-03-09T05:30:43.570Z,960.98
2019-03-09T05:31:43.502Z,960.85
2019-03-09T05:32:43.464Z,961.04
2019-03-09T05:33:43.369Z,960.89
2019-03-09T05:34:43.311Z,960.91
2019-03-09T05:35:43.254Z,960.76
2019-03-09T05:36:43.198Z,960.81
2019-03-09T05:37:43.522Z,960.84
2019-03-09T05:38:43.081Z,960.83
2019-03-09T05:39:43.025Z,961.03
2019-03-09T05:40:42.973Z,960.81
2019-03-09T05:41:42.913Z,960.93
2019-03-09T05:42:42.884Z,960.78
2019-03-09T05:43:42.798Z,960.83
2019-03-09T05:44:42.773Z,961.04
2019-03-09T05:45:42.726Z,960.83
2019-03-09T05:46:42.624Z,960.99
2019-03-09T05:47:42.572Z,960.92
2019-03-09T05:48:42.514Z,960.88
2019-03-09T05:49:42.462Z,960.75
2019-03-09T05:50:42.432Z,960.86
2019-03-09T05:51:42.343Z,960.86
2019-03-09T05:52:42.282Z,960.85
2019-03-09T05:53:42.225Z,960.84
2019-03-09T05:54:42.202Z,960.78
2019-03-09T05:55:42.131Z,960.92
2019-03-09T05:56:42.089Z,961.00
2019-03-09T05:57:42.005Z,960.90
2019-03-09T05:58:41.939Z,960.83
2019-03-09T05:59:41.886Z,960.81
2019-03-09T06:00:41.825Z,960.79
2019-03-09T06:01:41.801Z,960.83
2019-03-09T06:02:41.749Z,960.80
2019-03-09T06:03:41.656Z,960.84
2019-03-09T06:04:41.596Z,960.82
2019-03-09T06:05:41.574Z,960.82
2019-03-09T06:06:41.518Z,960.81
2019-03-09T06:07:41.428Z,961.02
2019-03-09T06:08:41.370Z,960.83
2019-03-09T06:09:41.315Z,960.85
2019-03-09T06:10:41.260Z,960.87
2019-03-09T06:11:41.469Z,960.99
2019-03-09T06:12:41.143Z,960.97
2019-03-09T06:13:41.087Z,960.84
2019-03-09T06:14:41.024Z,960.68
2019-03-09T06:15:40.970Z,961.02
2019-03-09T06:16:40.945Z,961.22
2019-03-09T06:17:40.856Z,961.06
2019-03-09T06:18:40.840Z,961.05
2019-03-09T06:19:40.742Z,961.11
2019-03-09T06:20:40.684Z,961.10
2019-03-09T06:21:40.627Z,961.05
2019-03-09T06:22:40.571Z,961.07
2019-03-09T06:23:40.560Z,961.06
2019-03-09T06:24:40.460Z,960.92
2019-03-09T06:25:40.402Z,960.96
2019-03-09T06:26:40.344Z,961.15
2019-03-09T06:27:40.288Z,961.06
2019-03-09T06:28:40.259Z,961.15
2019-03-09T06:29:40.173Z,961.10
2019-03-09T06:30:40.117Z,961.07
2019-03-09T06:31:40.061Z,961.04
2019-03-09T06:32:40.035Z,960.98
2019-03-09T06:33:39.960Z,961.09
2019-03-09T06:34:39.892Z,961.08
2019-03-09T06:35:39.832Z,961.15
2019-03-09T06:36:39.775Z,961.22
2019-03-09T06:37:39.751Z,961.21
2019-03-09T06:38:39.694Z,961.50
2019-03-09T06:39:39.640Z,961.29
2019-03-09T06:40:39.552Z,961.41
2019-03-09T06:41:39.523Z,961.42
2019-03-09T06:42:39.435Z,961.35
2019-03-09T06:43:39.379Z,961.34
2019-03-09T06:44:39.323Z,961.50
2019-03-09T06:45:39.266Z,961.30
2019-03-09T06:46:39.242Z,961.38
2019-03-09T06:47:39.202Z,961.40
2019-03-09T06:48:39.097Z,961.19
2019-03-09T06:49:39.043Z,961.34
2019-03-09T06:50:38.982Z,961.33
2019-03-09T06:51:38.925Z,961.26
2019-03-09T06:52:38.904Z,961.28
2019-03-09T06:53:38.813Z,961.37
2019-03-09T06:54:38.756Z,961.52
2019-03-09T06:55:38.698Z,961.33
2019-03-09T06:56:38.645Z,961.34
2019-03-09T06:57:38.632Z,961.44
2019-03-09T06:58:38.532Z,961.36
2019-03-09T06:59:38.473Z,961.36
2019-03-09T07:00:38.422Z,961.50
2019-03-09T07:01:38.359Z,961.46
2019-03-09T07:02:38.339Z,961.68
2019-03-09T07:03:38.247Z,961.77
2019-03-09T07:04:38.194Z,961.76
2019-03-09T07:05:38.140Z,961.80
2019-03-09T07:06:38.078Z,961.74
2019-03-09T07:07:38.052Z,961.87
2019-03-09T07:08:39.471Z,961.91
2019-03-09T07:09:37.908Z,961.92
2019-03-09T07:10:37.850Z,961.88
2019-03-09T07:11:37.829Z,961.99
2019-03-09T07:12:37.763Z,962.12
2019-03-09T07:13:37.717Z,961.97
2019-03-09T07:14:37.626Z,962.14
2019-03-09T07:15:37.599Z,962.00
2019-03-09T07:16:37.511Z,962.00
2019-03-09T07:17:37.457Z,962.05
2019-03-09T07:18:37.400Z,961.87
2019-03-09T07:19:37.375Z,962.02
2019-03-09T07:20:37.331Z,962.08
2019-03-09T07:21:37.231Z,962.14
2019-03-09T07:22:37.231Z,962.11
2019-03-09T07:23:37.119Z,962.08
2019-03-09T07:24:37.060Z,962.15
2019-03-09T07:25:37.010Z,962.18
2019-03-09T07:26:36.987Z,962.14
2019-03-09T07:27:36.889Z,962.11
2019-03-09T07:28:36.835Z,962.16
2019-03-09T07:29:36.782Z,962.03
2019-03-09T07:30:36.722Z,962.09
2019-03-09T07:31:36.700Z,962.13
2019-03-09T07:32:36.646Z,962.10
2019-03-09T07:33:36.553Z,962.15
2019-03-09T07:34:36.497Z,962.19
2019-03-09T07:35:36.441Z,962.10
2019-03-09T07:36:36.383Z,962.05
2019-03-09T07:37:37.004Z,962.11
2019-03-09T07:38:36.302Z,962.09
2019-03-09T07:39:36.214Z,962.09
2019-03-09T07:40:36.164Z,962.17
2019-03-09T07:41:36.104Z,962.13
2019-03-09T07:42:36.046Z,962.12
2019-03-09T07:43:36.020Z,962.10
2019-03-09T07:44:35.937Z,962.27
2019-03-09T07:45:35.881Z,962.08
2019-03-09T07:46:35.838Z,962.07
2019-03-09T07:47:35.764Z,962.26
2019-03-09T07:48:35.752Z,962.02
2019-03-09T07:49:35.653Z,962.14
2019-03-09T07:50:35.598Z,962.03
2019-03-09T07:51:35.542Z,962.01
2019-03-09T07:52:35.483Z,962.09
2019-03-09T07:53:35.477Z,962.13
2019-03-09T07:54:35.373Z,962.08
2019-03-09T07:55:35.321Z,962.07
2019-03-09T07:56:35.265Z,962.03
2019-03-09T07:57:35.204Z,962.05
2019-03-09T07:58:35.187Z,962.08
2019-03-09T07:59:35.089Z,961.99
2019-03-09T08:00:35.043Z,961.99
2019-03-09T08:01:34.977Z,962.06
2019-03-09T08:02:34.923Z,962.03
2019-03-09T08:03:34.897Z,962.03
2019-03-09T08:04:34.810Z,962.04
2019-03-09T08:05:34.761Z,962.01
2019-03-09T08:06:34.698Z,962.13
2019-03-09T08:07:34.643Z,962.12
2019-03-09T08:08:34.634Z,962.19
2019-03-09T08:09:34.531Z,962.27
2019-03-09T08:10:34.478Z,962.24
2019-03-09T08:11:34.469Z,962.20
2019-03-09T08:12:34.379Z,962.37
2019-03-09T08:13:34.312Z,962.29
2019-03-09T08:14:34.251Z,962.32
2019-03-09T08:15:34.199Z,962.44
2019-03-09T08:16:35.821Z,962.42
2019-03-09T08:17:34.117Z,962.33
2019-03-09T08:18:34.034Z,962.33
2019-03-09T08:19:33.969Z,962.31
2019-03-09T08:20:33.916Z,962.40
2019-03-09T08:21:33.865Z,962.34
2019-03-09T08:22:33.838Z,962.40
2019-03-09T08:23:33.751Z,962.31
2019-03-09T08:24:33.694Z,962.39
2019-03-09T08:25:33.638Z,962.45
2019-03-09T08:26:33.588Z,962.54
2019-03-09T08:27:33.585Z,962.63
2019-03-09T08:28:33.487Z,962.55
2019-03-09T08:29:33.418Z,962.50
2019-03-09T08:30:33.366Z,962.59
2019-03-09T08:31:33.309Z,962.71
2019-03-09T08:32:33.290Z,962.62
2019-03-09T08:33:33.214Z,962.75
2019-03-09T08:34:33.146Z,962.77
2019-03-09T08:35:33.083Z,962.79
2019-03-09T08:36:34.965Z,962.80
2019-03-09T08:37:33.004Z,962.78
2019-03-09T08:38:32.918Z,962.84
2019-03-09T08:39:32.860Z,962.85
2019-03-09T08:40:32.800Z,962.90
2019-03-09T08:41:32.745Z,962.84
2019-03-09T08:42:32.727Z,962.83
2019-03-09T08:43:32.668Z,962.88
2019-03-09T08:44:32.583Z,962.88
2019-03-09T08:45:32.540Z,962.98
2019-03-09T08:46:32.507Z,962.90
2019-03-09T08:47:32.433Z,962.92
2019-03-09T08:48:32.373Z,962.96
2019-03-09T08:49:32.307Z,962.87
2019-03-09T08:50:32.259Z,962.91
2019-03-09T08:51:32.224Z,962.93
2019-03-09T08:52:32.157Z,962.96
2019-03-09T08:53:32.110Z,963.00
2019-03-09T08:54:32.034Z,962.87
2019-03-09T08:55:31.968Z,962.87
2019-03-09T08:56:33.489Z,962.86
2019-03-09T08:57:31.870Z,962.89
2019-03-09T08:58:31.854Z,962.85
2019-03-09T08:59:31.786Z,962.92
2019-03-09T09:00:31.774Z,962.86
2019-03-09T09:01:31.639Z,962.93
2019-03-09T09:02:31.578Z,962.97
2019-03-09T09:03:31.558Z,963.07
2019-03-09T09:04:31.473Z,962.99
2019-03-09T09:05:31.439Z,962.97
2019-03-09T09:06:31.412Z,962.99
2019-03-09T09:07:31.317Z,962.97
2019-03-09T09:08:31.257Z,963.03
2019-03-09T09:09:31.202Z,963.04
2019-03-09T09:10:31.169Z,963.03
2019-03-09T09:11:31.082Z,963.09
2019-03-09T09:12:31.027Z,963.11
2019-03-09T09:13:30.979Z,963.10
2019-03-09T09:14:30.920Z,963.20
2019-03-09T09:15:30.888Z,963.16
2019-03-09T09:16:30.814Z,963.18
2019-03-09T09:17:30.756Z,963.19
2019-03-09T09:18:30.700Z,963.18
2019-03-09T09:19:30.643Z,963.17
2019-03-09T09:20:30.620Z,963.10
2019-03-09T09:21:30.537Z,963.15
2019-03-09T09:22:30.485Z,963.22
2019-03-09T09:23:30.467Z,963.14
2019-03-09T09:24:30.374Z,963.06
2019-03-09T09:25:30.349Z,963.10
2019-03-09T09:26:30.267Z,963.10
2019-03-09T09:27:30.207Z,963.07
2019-03-09T09:28:30.150Z,963.05
2019-03-09T09:29:30.092Z,963.11
2019-03-09T09:30:30.076Z,963.12
2019-03-09T09:31:29.989Z,963.11
2019-03-09T09:32:29.927Z,963.17
2019-03-09T09:33:29.870Z,963.19
2019-03-09T09:34:29.817Z,963.14
2019-03-09T09:35:29.813Z,963.11
2019-03-09T09:36:29.708Z,963.21
2019-03-09T09:37:29.688Z,963.10
2019-03-09T09:38:29.609Z,963.13
2019-03-09T09:39:29.541Z,963.12
2019-03-09T09:40:29.531Z,963.15
2019-03-09T09:41:29.435Z,963.19
2019-03-09T09:42:29.384Z,963.13
2019-03-09T09:43:29.321Z,963.11
2019-03-09T09:44:29.265Z,963.25
2019-03-09T09:45:29.251Z,963.13
2019-03-09T09:46:29.192Z,963.25
2019-03-09T09:47:29.103Z,963.20
2019-03-09T09:48:29.047Z,963.25
2019-03-09T09:49:29.031Z,963.26
2019-03-09T09:50:28.940Z,963.27
2019-03-09T09:51:28.893Z,963.22
2019-03-09T09:52:28.828Z,963.27
2019-03-09T09:53:28.807Z,963.32
2019-03-09T09:54:28.717Z,963.31
2019-03-09T09:55:28.662Z,963.34
2019-03-09T09:56:28.611Z,963.25
2019-03-09T09:57:28.587Z,963.25
2019-03-09T09:58:28.502Z,963.21
2019-03-09T09:59:28.490Z,963.28
2019-03-09T10:00:28.414Z,963.33
2019-03-09T10:01:28.337Z,963.27
2019-03-09T10:02:28.319Z,963.26
2019-03-09T10:03:28.225Z,963.28
2019-03-09T10:04:28.207Z,963.31
2019-03-09T10:05:28.119Z,963.27
2019-03-09T10:06:28.096Z,963.24
2019-03-09T10:07:28.059Z,963.26
2019-03-09T10:08:27.954Z,963.17
2019-03-09T10:09:27.901Z,963.17
2019-03-09T10:10:29.821Z,963.15
2019-03-09T10:11:27.841Z,963.15
2019-03-09T10:12:27.734Z,963.14
2019-03-09T10:13:28.466Z,963.14
2019-03-09T10:14:27.622Z,963.18
2019-03-09T10:15:27.611Z,963.31
2019-03-09T10:16:27.516Z,963.27
2019-03-09T10:17:27.461Z,963.38
2019-03-09T10:18:27.406Z,963.36
2019-03-09T10:19:27.348Z,963.42
2019-03-09T10:20:27.337Z,963.26
2019-03-09T10:21:27.239Z,963.33
2019-03-09T10:22:27.218Z,963.25
2019-03-09T10:23:27.134Z,963.45
2019-03-09T10:24:27.133Z,963.37
2019-03-09T10:25:27.066Z,963.36
2019-03-09T10:26:26.971Z,963.29
2019-03-09T10:27:26.946Z,963.32
2019-03-09T10:28:26.861Z,963.30
2019-03-09T10:29:26.808Z,963.29
2019-03-09T10:30:26.777Z,963.37
2019-03-09T10:31:26.737Z,963.37
2019-03-09T10:32:26.639Z,963.32
2019-03-09T10:33:26.661Z,963.46
2019-03-09T10:34:26.533Z,963.53
2019-03-09T10:35:26.602Z,963.42
2019-03-09T10:36:26.422Z,963.50
2019-03-09T10:37:26.369Z,963.48
2019-03-09T10:38:27.933Z,963.47
2019-03-09T10:39:26.256Z,963.48
2019-03-09T10:40:26.241Z,963.32
2019-03-09T10:41:26.148Z,963.28
2019-03-09T10:42:26.137Z,963.24
2019-03-09T10:43:26.042Z,963.25
2019-03-09T10:44:25.999Z,963.25
2019-03-09T10:45:25.945Z,963.34
2019-03-09T10:46:25.873Z,963.35
2019-03-09T10:47:25.874Z,963.33
2019-03-09T10:48:25.792Z,963.36
2019-03-09T10:49:25.753Z,963.36
2019-03-09T10:50:26.098Z,963.34
2019-03-09T10:51:25.625Z,963.42
2019-03-09T10:52:25.579Z,963.40
2019-03-09T10:53:25.495Z,963.43
2019-03-09T10:54:35.498Z,963.43
2019-03-09T10:55:25.387Z,963.45
2019-03-09T10:56:25.333Z,963.48
2019-03-09T10:57:25.305Z,963.47
2019-03-09T10:58:25.220Z,963.46
2019-03-09T10:59:25.171Z,963.43
2019-03-09T11:00:25.147Z,963.46
2019-03-09T11:01:25.059Z,963.46
2019-03-09T11:02:25.034Z,963.55
2019-03-09T11:03:24.951Z,963.42
2019-03-09T11:04:27.848Z,963.37
2019-03-09T11:05:24.843Z,963.46
2019-03-09T11:06:24.821Z,963.40
2019-03-09T11:07:24.732Z,963.51
2019-03-09T11:08:24.684Z,963.57
2019-03-09T11:09:24.656Z,963.54
2019-03-09T11:10:24.572Z,963.55
2019-03-09T11:11:24.594Z,963.56
2019-03-09T11:12:24.514Z,963.50
2019-03-09T11:13:24.411Z,963.51
2019-03-09T11:14:24.361Z,963.50
2019-03-09T11:15:24.299Z,963.46
2019-03-09T11:16:24.248Z,963.58
2019-03-09T11:17:24.297Z,963.50
2019-03-09T11:18:24.187Z,963.57
2019-03-09T11:19:24.084Z,963.56
2019-03-09T11:20:24.037Z,963.54
2019-03-09T11:21:23.974Z,963.52
2019-03-09T11:22:23.956Z,963.43
2019-03-09T11:23:23.951Z,963.50
2019-03-09T11:24:23.812Z,963.49
2019-03-09T11:25:23.760Z,963.54
2019-03-09T11:26:23.715Z,963.49
2019-03-09T11:27:23.648Z,963.56
2019-03-09T11:28:23.626Z,963.57
2019-03-09T11:29:23.541Z,963.60
2019-03-09T11:30:23.486Z,963.60
2019-03-09T11:31:23.532Z,963.57
2019-03-09T11:32:23.383Z,963.53
2019-03-09T11:33:23.362Z,963.51
2019-03-09T11:34:23.273Z,963.50
2019-03-09T11:35:23.248Z,963.36
2019-03-09T11:36:23.162Z,963.54
2019-03-09T11:37:23.107Z,963.53
2019-03-09T11:38:23.083Z,963.38
2019-03-09T11:39:23.001Z,963.29
2019-03-09T11:40:22.988Z,963.43
2019-03-09T11:41:22.895Z,963.31
2019-03-09T11:42:22.845Z,963.40
2019-03-09T11:43:22.788Z,963.39
2019-03-09T11:44:22.766Z,963.49
2019-03-09T11:45:22.720Z,963.42
2019-03-09T11:46:22.621Z,963.37
2019-03-09T11:47:22.570Z,963.33
2019-03-09T11:48:22.517Z,963.37
2019-03-09T11:49:22.462Z,963.34
2019-03-09T11:50:22.445Z,963.34
2019-03-09T11:51:22.357Z,963.41
2019-03-09T11:52:22.302Z,963.36
2019-03-09T11:53:22.246Z,963.29
2019-03-09T11:54:22.191Z,963.31
2019-03-09T11:55:22.174Z,963.25
2019-03-09T11:56:22.116Z,963.18
2019-03-09T11:57:22.044Z,963.18
2019-03-09T11:58:21.985Z,963.15
2019-03-09T11:59:21.924Z,963.14
2019-03-09T12:00:21.873Z,963.14
2019-03-09T12:01:21.857Z,963.01
2019-03-09T12:02:21.759Z,963.08
2019-03-09T12:03:21.708Z,963.06
2019-03-09T12:04:21.653Z,962.99
2019-03-09T12:05:21.601Z,963.01
2019-03-09T12:06:21.581Z,963.02
2019-03-09T12:07:21.492Z,963.04
2019-03-09T12:08:21.440Z,963.06
2019-03-09T12:09:21.385Z,963.03
2019-03-09T12:10:21.332Z,963.06
2019-03-09T12:11:21.315Z,962.98
2019-03-09T12:12:21.219Z,963.04
2019-03-09T12:13:21.167Z,962.96
2019-03-09T12:14:21.110Z,962.94
2019-03-09T12:15:21.061Z,962.90
2019-03-09T12:16:21.033Z,962.88
2019-03-09T12:17:20.952Z,962.87
2019-03-09T12:18:20.965Z,962.81
2019-03-09T12:19:20.887Z,962.87
2019-03-09T12:20:20.787Z,962.79
2019-03-09T12:21:20.739Z,962.80
2019-03-09T12:22:20.678Z,962.85
2019-03-09T12:23:20.633Z,962.71
2019-03-09T12:24:20.615Z,962.66
2019-03-09T12:25:20.519Z,962.75
2019-03-09T12:26:20.466Z,962.69
2019-03-09T12:27:20.415Z,962.73